sensor_id;sensor_type;location;lat;lon;timestamp;temperature;humidity
1568;DHT22;777;47.156;8.326;2023-09-30T00:02:26;18.10;99.90
1568;DHT22;777;47.156;8.326;2023-09-30T00:04:54;18.00;99.90
1568;DHT22;777;47.156;8.326;2023-09-30T00:07:21;17.70;99.90
1568;DHT22;777;47.156;8.326;2023-09-30T00:09:48;17.60;99.90
1568;DHT22;777;47.156;8.326;2023-09-30T00:12:18;17.70;99.90
1568;DHT22;777;47.156;8.326;2023-09-30T00:14:46;17.50;99.90
1568;DHT22;777;47.156;8.326;2023-09-30T00:17:14;17.60;99.90
1568;DHT22;777;47.156;8.326;2023-09-30T00:19:41;17.80;99.90
1568;DHT22;777;47.156;8.326;2023-09-30T00:22:08;17.80;99.90
1568;DHT22;777;47.156;8.326;2023-09-30T00:24:35;17.50;99.90
1568;DHT22;777;47.156;8.326;2023-09-30T00:27:02;17.60;99.90
1568;DHT22;777;47.156;8.326;2023-09-30T00:29:30;17.70;99.90
1568;DHT22;777;47.156;8.326;2023-09-30T00:31:57;17.70;99.90
1568;DHT22;777;47.156;8.326;2023-09-30T00:34:24;17.80;99.90
1568;DHT22;777;47.156;8.326;2023-09-30T00:36:51;17.70;99.90
1568;DHT22;777;47.156;8.326;2023-09-30T00:39:18;17.40;99.90
1568;DHT22;777;47.156;8.326;2023-09-30T00:41:45;17.40;99.90
1568;DHT22;777;47.156;8.326;2023-09-30T00:44:12;17.60;99.90
1568;DHT22;777;47.156;8.326;2023-09-30T00:46:41;17.80;99.90
1568;DHT22;777;47.156;8.326;2023-09-30T00:49:09;17.80;99.90
1568;DHT22;777;47.156;8.326;2023-09-30T00:51:36;17.90;99.90
1568;DHT22;777;47.156;8.326;2023-09-30T00:54:04;17.80;99.90
1568;DHT22;777;47.156;8.326;2023-09-30T00:56:32;17.60;99.90
1568;DHT22;777;47.156;8.326;2023-09-30T00:59:00;17.50;99.90
1568;DHT22;777;47.156;8.326;2023-09-30T01:01:27;17.60;99.90
1568;DHT22;777;47.156;8.326;2023-09-30T01:03:56;17.80;99.90
1568;DHT22;777;47.156;8.326;2023-09-30T01:06:24;17.90;99.90
1568;DHT22;777;47.156;8.326;2023-09-30T01:08:53;17.90;99.90
1568;DHT22;777;47.156;8.326;2023-09-30T01:11:21;18.00;99.90
1568;DHT22;777;47.156;8.326;2023-09-30T01:13:48;18.10;99.90
1568;DHT22;777;47.156;8.326;2023-09-30T01:16:15;18.00;99.90
1568;DHT22;777;47.156;8.326;2023-09-30T01:18:42;18.10;99.90
1568;DHT22;777;47.156;8.326;2023-09-30T01:21:11;18.20;99.90
1568;DHT22;777;47.156;8.326;2023-09-30T01:23:41;18.20;99.90
1568;DHT22;777;47.156;8.326;2023-09-30T01:26:11;18.20;99.90
1568;DHT22;777;47.156;8.326;2023-09-30T01:28:39;18.20;99.90
1568;DHT22;777;47.156;8.326;2023-09-30T01:31:06;18.10;99.90
1568;DHT22;777;47.156;8.326;2023-09-30T01:33:35;18.00;99.90
1568;DHT22;777;47.156;8.326;2023-09-30T01:36:03;18.00;99.90
1568;DHT22;777;47.156;8.326;2023-09-30T01:38:30;18.00;99.90
1568;DHT22;777;47.156;8.326;2023-09-30T01:40:58;18.00;99.90
1568;DHT22;777;47.156;8.326;2023-09-30T01:43:26;18.00;99.90
1568;DHT22;777;47.156;8.326;2023-09-30T01:45:53;17.90;99.90
1568;DHT22;777;47.156;8.326;2023-09-30T01:48:20;18.00;99.90
1568;DHT22;777;47.156;8.326;2023-09-30T01:50:47;18.00;99.90
1568;DHT22;777;47.156;8.326;2023-09-30T01:53:14;18.00;99.90
1568;DHT22;777;47.156;8.326;2023-09-30T01:55:41;18.00;99.90
1568;DHT22;777;47.156;8.326;2023-09-30T01:58:11;18.10;99.90
1568;DHT22;777;47.156;8.326;2023-09-30T02:00:38;18.00;99.90
1568;DHT22;777;47.156;8.326;2023-09-30T02:03:05;17.90;99.90
1568;DHT22;777;47.156;8.326;2023-09-30T02:05:32;17.80;99.90
1568;DHT22;777;47.156;8.326;2023-09-30T02:07:59;17.70;99.90
1568;DHT22;777;47.156;8.326;2023-09-30T02:10:31;17.70;99.90
1568;DHT22;777;47.156;8.326;2023-09-30T02:12:59;17.70;99.90
1568;DHT22;777;47.156;8.326;2023-09-30T02:15:27;17.70;99.90
1568;DHT22;777;47.156;8.326;2023-09-30T02:17:54;17.60;99.90
1568;DHT22;777;47.156;8.326;2023-09-30T02:20:21;17.70;99.90
1568;DHT22;777;47.156;8.326;2023-09-30T02:22:51;17.60;99.90
1568;DHT22;777;47.156;8.326;2023-09-30T02:25:18;17.60;99.90
1568;DHT22;777;47.156;8.326;2023-09-30T02:27:45;17.40;99.90
1568;DHT22;777;47.156;8.326;2023-09-30T02:30:12;17.30;99.90
1568;DHT22;777;47.156;8.326;2023-09-30T02:32:41;17.20;99.90
1568;DHT22;777;47.156;8.326;2023-09-30T02:35:09;17.00;99.90
1568;DHT22;777;47.156;8.326;2023-09-30T02:37:37;17.20;99.90
1568;DHT22;777;47.156;8.326;2023-09-30T02:40:07;17.30;99.90
1568;DHT22;777;47.156;8.326;2023-09-30T02:42:36;17.50;99.90
1568;DHT22;777;47.156;8.326;2023-09-30T02:45:04;17.60;99.90
1568;DHT22;777;47.156;8.326;2023-09-30T02:47:31;17.70;99.90
1568;DHT22;777;47.156;8.326;2023-09-30T02:50:01;17.60;99.90
1568;DHT22;777;47.156;8.326;2023-09-30T02:52:30;17.60;99.90
1568;DHT22;777;47.156;8.326;2023-09-30T02:54:58;17.70;99.90
1568;DHT22;777;47.156;8.326;2023-09-30T02:57:25;17.70;99.90
1568;DHT22;777;47.156;8.326;2023-09-30T02:59:53;17.70;99.90
1568;DHT22;777;47.156;8.326;2023-09-30T03:02:22;17.70;99.90
1568;DHT22;777;47.156;8.326;2023-09-30T03:04:49;17.70;99.90
1568;DHT22;777;47.156;8.326;2023-09-30T03:07:20;17.70;99.90
1568;DHT22;777;47.156;8.326;2023-09-30T03:09:48;17.70;99.90
1568;DHT22;777;47.156;8.326;2023-09-30T03:12:15;17.70;99.90
1568;DHT22;777;47.156;8.326;2023-09-30T03:14:43;17.60;99.90
1568;DHT22;777;47.156;8.326;2023-09-30T03:17:10;17.60;99.90
1568;DHT22;777;47.156;8.326;2023-09-30T03:19:38;17.50;99.90
1568;DHT22;777;47.156;8.326;2023-09-30T03:22:05;17.50;99.90
1568;DHT22;777;47.156;8.326;2023-09-30T03:24:38;17.50;99.90
1568;DHT22;777;47.156;8.326;2023-09-30T03:27:07;17.40;99.90
1568;DHT22;777;47.156;8.326;2023-09-30T03:29:35;17.40;99.90
1568;DHT22;777;47.156;8.326;2023-09-30T03:32:04;17.50;99.90
1568;DHT22;777;47.156;8.326;2023-09-30T03:34:30;17.50;99.90
1568;DHT22;777;47.156;8.326;2023-09-30T03:36:57;17.50;99.90
1568;DHT22;777;47.156;8.326;2023-09-30T03:39:25;17.50;99.90
1568;DHT22;777;47.156;8.326;2023-09-30T03:41:55;17.40;99.90
1568;DHT22;777;47.156;8.326;2023-09-30T03:44:24;17.50;99.90
1568;DHT22;777;47.156;8.326;2023-09-30T03:46:51;17.50;99.90
1568;DHT22;777;47.156;8.326;2023-09-30T03:49:18;17.60;99.90
1568;DHT22;777;47.156;8.326;2023-09-30T03:51:46;17.60;99.90
1568;DHT22;777;47.156;8.326;2023-09-30T03:54:16;17.50;99.90
1568;DHT22;777;47.156;8.326;2023-09-30T03:56:43;17.50;99.90
1568;DHT22;777;47.156;8.326;2023-09-30T03:59:12;17.60;99.90
1568;DHT22;777;47.156;8.326;2023-09-30T04:01:39;17.60;99.90
1568;DHT22;777;47.156;8.326;2023-09-30T04:04:06;17.50;99.90
1568;DHT22;777;47.156;8.326;2023-09-30T04:06:35;17.40;99.90
1568;DHT22;777;47.156;8.326;2023-09-30T04:09:04;17.40;99.90
1568;DHT22;777;47.156;8.326;2023-09-30T04:11:36;17.20;99.90
1568;DHT22;777;47.156;8.326;2023-09-30T04:14:03;17.10;99.90
1568;DHT22;777;47.156;8.326;2023-09-30T04:16:32;17.10;99.90
1568;DHT22;777;47.156;8.326;2023-09-30T04:18:59;16.90;99.90
1568;DHT22;777;47.156;8.326;2023-09-30T04:21:27;16.90;99.90
1568;DHT22;777;47.156;8.326;2023-09-30T04:23:55;17.00;99.90
1568;DHT22;777;47.156;8.326;2023-09-30T04:26:23;17.20;99.90
1568;DHT22;777;47.156;8.326;2023-09-30T04:28:51;17.20;99.90
1568;DHT22;777;47.156;8.326;2023-09-30T04:31:19;17.00;99.90
1568;DHT22;777;47.156;8.326;2023-09-30T04:33:49;16.80;99.90
1568;DHT22;777;47.156;8.326;2023-09-30T04:36:18;16.60;99.90
1568;DHT22;777;47.156;8.326;2023-09-30T04:38:45;16.60;99.90
1568;DHT22;777;47.156;8.326;2023-09-30T04:41:12;16.50;99.90
1568;DHT22;777;47.156;8.326;2023-09-30T04:43:41;16.50;99.90
1568;DHT22;777;47.156;8.326;2023-09-30T04:46:09;16.50;99.90
1568;DHT22;777;47.156;8.326;2023-09-30T04:48:38;16.60;99.90
1568;DHT22;777;47.156;8.326;2023-09-30T04:51:08;16.70;99.90
1568;DHT22;777;47.156;8.326;2023-09-30T04:53:37;16.70;99.90
1568;DHT22;777;47.156;8.326;2023-09-30T04:56:05;16.60;99.90
1568;DHT22;777;47.156;8.326;2023-09-30T04:58:32;16.50;99.90
1568;DHT22;777;47.156;8.326;2023-09-30T05:00:59;16.40;99.90
1568;DHT22;777;47.156;8.326;2023-09-30T05:03:26;16.40;99.90
1568;DHT22;777;47.156;8.326;2023-09-30T05:05:53;16.50;99.90
1568;DHT22;777;47.156;8.326;2023-09-30T05:08:23;16.60;99.90
1568;DHT22;777;47.156;8.326;2023-09-30T05:10:50;16.40;99.90
1568;DHT22;777;47.156;8.326;2023-09-30T05:13:17;16.50;99.90
1568;DHT22;777;47.156;8.326;2023-09-30T05:15:44;16.50;99.90
1568;DHT22;777;47.156;8.326;2023-09-30T05:18:12;16.30;99.90
1568;DHT22;777;47.156;8.326;2023-09-30T05:20:39;16.40;99.90
1568;DHT22;777;47.156;8.326;2023-09-30T05:23:06;16.50;99.90
1568;DHT22;777;47.156;8.326;2023-09-30T05:25:35;16.60;99.90
1568;DHT22;777;47.156;8.326;2023-09-30T05:28:03;16.60;99.90
1568;DHT22;777;47.156;8.326;2023-09-30T05:30:30;16.50;99.90
1568;DHT22;777;47.156;8.326;2023-09-30T05:32:57;16.30;99.90
1568;DHT22;777;47.156;8.326;2023-09-30T05:35:24;16.10;99.90
1568;DHT22;777;47.156;8.326;2023-09-30T05:37:51;16.10;99.90
1568;DHT22;777;47.156;8.326;2023-09-30T05:40:19;16.20;99.90
1568;DHT22;777;47.156;8.326;2023-09-30T05:42:52;16.40;99.90
1568;DHT22;777;47.156;8.326;2023-09-30T05:45:22;16.60;99.90
1568;DHT22;777;47.156;8.326;2023-09-30T05:47:50;16.60;99.90
1568;DHT22;777;47.156;8.326;2023-09-30T05:50:18;16.70;99.90
1568;DHT22;777;47.156;8.326;2023-09-30T05:52:49;16.80;99.90
1568;DHT22;777;47.156;8.326;2023-09-30T05:55:16;16.80;99.90
1568;DHT22;777;47.156;8.326;2023-09-30T05:57:46;16.80;99.90
1568;DHT22;777;47.156;8.326;2023-09-30T06:00:14;16.80;99.90
1568;DHT22;777;47.156;8.326;2023-09-30T06:02:46;16.80;99.90
1568;DHT22;777;47.156;8.326;2023-09-30T06:05:14;16.90;99.90
1568;DHT22;777;47.156;8.326;2023-09-30T06:07:44;16.90;99.90
1568;DHT22;777;47.156;8.326;2023-09-30T06:10:12;17.00;99.90
1568;DHT22;777;47.156;8.326;2023-09-30T06:12:45;17.10;99.90
1568;DHT22;777;47.156;8.326;2023-09-30T06:15:14;17.20;99.90
1568;DHT22;777;47.156;8.326;2023-09-30T06:17:41;17.00;99.90
1568;DHT22;777;47.156;8.326;2023-09-30T06:20:09;17.00;99.90
1568;DHT22;777;47.156;8.326;2023-09-30T06:22:42;17.10;99.90
1568;DHT22;777;47.156;8.326;2023-09-30T06:25:11;17.20;99.90
1568;DHT22;777;47.156;8.326;2023-09-30T06:27:39;17.30;99.90
1568;DHT22;777;47.156;8.326;2023-09-30T06:30:06;17.30;99.90
1568;DHT22;777;47.156;8.326;2023-09-30T06:32:36;17.40;99.90
1568;DHT22;777;47.156;8.326;2023-09-30T06:35:03;17.30;99.90
1568;DHT22;777;47.156;8.326;2023-09-30T06:37:32;17.10;99.90
1568;DHT22;777;47.156;8.326;2023-09-30T06:39:59;17.10;99.90
1568;DHT22;777;47.156;8.326;2023-09-30T06:42:26;16.80;99.90
1568;DHT22;777;47.156;8.326;2023-09-30T06:44:54;16.70;99.90
1568;DHT22;777;47.156;8.326;2023-09-30T06:47:20;16.80;99.90
1568;DHT22;777;47.156;8.326;2023-09-30T06:49:49;17.00;99.90
1568;DHT22;777;47.156;8.326;2023-09-30T06:52:16;17.20;99.90
1568;DHT22;777;47.156;8.326;2023-09-30T06:54:42;17.30;99.90
1568;DHT22;777;47.156;8.326;2023-09-30T06:57:09;17.40;99.90
1568;DHT22;777;47.156;8.326;2023-09-30T06:59:36;17.50;99.90
1568;DHT22;777;47.156;8.326;2023-09-30T07:02:04;17.50;99.90
1568;DHT22;777;47.156;8.326;2023-09-30T07:04:30;17.60;99.90
1568;DHT22;777;47.156;8.326;2023-09-30T07:06:59;17.70;99.90
1568;DHT22;777;47.156;8.326;2023-09-30T07:09:26;17.70;99.90
1568;DHT22;777;47.156;8.326;2023-09-30T07:11:53;17.80;99.90
1568;DHT22;777;47.156;8.326;2023-09-30T07:14:20;18.10;99.90
1568;DHT22;777;47.156;8.326;2023-09-30T07:16:47;18.40;99.90
1568;DHT22;777;47.156;8.326;2023-09-30T07:19:14;18.50;99.90
1568;DHT22;777;47.156;8.326;2023-09-30T07:21:41;18.60;99.90
1568;DHT22;777;47.156;8.326;2023-09-30T07:24:09;18.80;99.90
1568;DHT22;777;47.156;8.326;2023-09-30T07:26:36;19.10;99.90
1568;DHT22;777;47.156;8.326;2023-09-30T07:29:03;19.10;99.90
1568;DHT22;777;47.156;8.326;2023-09-30T07:31:34;19.20;99.90
1568;DHT22;777;47.156;8.326;2023-09-30T07:34:01;19.80;99.90
1568;DHT22;777;47.156;8.326;2023-09-30T07:36:28;20.00;99.90
1568;DHT22;777;47.156;8.326;2023-09-30T07:38:55;20.00;99.90
1568;DHT22;777;47.156;8.326;2023-09-30T07:41:23;19.80;99.90
1568;DHT22;777;47.156;8.326;2023-09-30T07:43:50;19.60;99.90
1568;DHT22;777;47.156;8.326;2023-09-30T07:46:17;19.50;99.90
1568;DHT22;777;47.156;8.326;2023-09-30T07:48:44;19.40;99.90
1568;DHT22;777;47.156;8.326;2023-09-30T07:51:11;19.30;99.90
1568;DHT22;777;47.156;8.326;2023-09-30T07:53:39;19.60;99.90
1568;DHT22;777;47.156;8.326;2023-09-30T07:56:07;20.00;99.90
1568;DHT22;777;47.156;8.326;2023-09-30T07:58:35;21.00;99.90
1568;DHT22;777;47.156;8.326;2023-09-30T08:01:02;21.70;99.90
1568;DHT22;777;47.156;8.326;2023-09-30T08:03:30;21.60;99.90
1568;DHT22;777;47.156;8.326;2023-09-30T08:05:57;21.40;99.90
1568;DHT22;777;47.156;8.326;2023-09-30T08:08:24;21.30;99.90
1568;DHT22;777;47.156;8.326;2023-09-30T08:10:51;21.10;99.90
1568;DHT22;777;47.156;8.326;2023-09-30T08:13:21;21.10;99.90
1568;DHT22;777;47.156;8.326;2023-09-30T08:15:50;20.90;99.90
1568;DHT22;777;47.156;8.326;2023-09-30T08:18:19;20.80;99.90
1568;DHT22;777;47.156;8.326;2023-09-30T08:20:45;20.80;99.90
1568;DHT22;777;47.156;8.326;2023-09-30T08:23:12;21.20;99.90
1568;DHT22;777;47.156;8.326;2023-09-30T08:25:39;21.50;99.90
1568;DHT22;777;47.156;8.326;2023-09-30T08:28:06;22.10;99.90
1568;DHT22;777;47.156;8.326;2023-09-30T08:30:35;23.20;99.90
1568;DHT22;777;47.156;8.326;2023-09-30T08:33:03;24.60;99.90
1568;DHT22;777;47.156;8.326;2023-09-30T08:35:35;25.60;99.90
1568;DHT22;777;47.156;8.326;2023-09-30T08:38:02;26.70;99.90
1568;DHT22;777;47.156;8.326;2023-09-30T08:40:30;27.40;99.90
1568;DHT22;777;47.156;8.326;2023-09-30T08:42:57;27.40;99.90
1568;DHT22;777;47.156;8.326;2023-09-30T08:45:28;26.30;99.90
1568;DHT22;777;47.156;8.326;2023-09-30T08:47:57;25.60;99.90
1568;DHT22;777;47.156;8.326;2023-09-30T08:50:27;25.40;99.90
1568;DHT22;777;47.156;8.326;2023-09-30T08:52:55;25.90;99.90
1568;DHT22;777;47.156;8.326;2023-09-30T08:55:23;25.80;99.90
1568;DHT22;777;47.156;8.326;2023-09-30T08:57:51;23.70;99.90
1568;DHT22;777;47.156;8.326;2023-09-30T09:00:19;24.70;99.90
1568;DHT22;777;47.156;8.326;2023-09-30T09:02:46;25.00;99.90
1568;DHT22;777;47.156;8.326;2023-09-30T09:05:14;25.10;99.90
1568;DHT22;777;47.156;8.326;2023-09-30T09:07:42;23.60;99.90
1568;DHT22;777;47.156;8.326;2023-09-30T09:10:11;23.70;99.90
1568;DHT22;777;47.156;8.326;2023-09-30T09:12:40;25.20;99.90
1568;DHT22;777;47.156;8.326;2023-09-30T09:15:08;26.70;99.90
1568;DHT22;777;47.156;8.326;2023-09-30T09:17:46;27.80;99.90
1568;DHT22;777;47.156;8.326;2023-09-30T09:20:17;28.70;99.90
1568;DHT22;777;47.156;8.326;2023-09-30T09:22:48;27.50;99.90
1568;DHT22;777;47.156;8.326;2023-09-30T09:25:18;24.30;99.90
1568;DHT22;777;47.156;8.326;2023-09-30T09:27:45;26.40;99.90
1568;DHT22;777;47.156;8.326;2023-09-30T09:30:17;28.00;99.90
1568;DHT22;777;47.156;8.326;2023-09-30T09:32:55;28.80;99.90
1568;DHT22;777;47.156;8.326;2023-09-30T09:35:24;28.70;99.90
1568;DHT22;777;47.156;8.326;2023-09-30T09:38:00;29.80;99.90
1568;DHT22;777;47.156;8.326;2023-09-30T09:40:28;30.00;99.90
1568;DHT22;777;47.156;8.326;2023-09-30T09:42:56;25.80;99.90
1568;DHT22;777;47.156;8.326;2023-09-30T09:45:25;23.20;99.90
1568;DHT22;777;47.156;8.326;2023-09-30T09:47:53;23.00;99.90
1568;DHT22;777;47.156;8.326;2023-09-30T09:50:21;23.50;99.90
1568;DHT22;777;47.156;8.326;2023-09-30T09:52:49;23.80;99.90
1568;DHT22;777;47.156;8.326;2023-09-30T09:55:19;23.90;99.90
1568;DHT22;777;47.156;8.326;2023-09-30T09:57:48;24.10;99.90
1568;DHT22;777;47.156;8.326;2023-09-30T10:00:17;24.20;99.90
1568;DHT22;777;47.156;8.326;2023-09-30T10:02:45;23.90;99.90
1568;DHT22;777;47.156;8.326;2023-09-30T10:05:13;23.80;99.90
1568;DHT22;777;47.156;8.326;2023-09-30T10:07:44;23.80;99.90
1568;DHT22;777;47.156;8.326;2023-09-30T10:10:16;24.10;99.90
1568;DHT22;777;47.156;8.326;2023-09-30T10:12:45;24.30;99.90
1568;DHT22;777;47.156;8.326;2023-09-30T10:15:39;24.40;99.90
1568;DHT22;777;47.156;8.326;2023-09-30T10:18:07;24.60;99.90
1568;DHT22;777;47.156;8.326;2023-09-30T10:20:36;24.30;99.90
1568;DHT22;777;47.156;8.326;2023-09-30T10:23:24;24.20;99.90
1568;DHT22;777;47.156;8.326;2023-09-30T10:25:53;25.00;99.90
1568;DHT22;777;47.156;8.326;2023-09-30T10:28:38;25.80;99.90
1568;DHT22;777;47.156;8.326;2023-09-30T10:31:10;26.50;99.90
1568;DHT22;777;47.156;8.326;2023-09-30T10:34:21;27.30;99.90
1568;DHT22;777;47.156;8.326;2023-09-30T10:36:48;27.50;99.90
1568;DHT22;777;47.156;8.326;2023-09-30T10:42:43;24.80;99.90
1568;DHT22;777;47.156;8.326;2023-09-30T10:45:41;23.30;99.90
1568;DHT22;777;47.156;8.326;2023-09-30T10:48:33;24.30;99.90
1568;DHT22;777;47.156;8.326;2023-09-30T10:51:11;24.20;99.90
1568;DHT22;777;47.156;8.326;2023-09-30T10:53:45;23.30;99.90
1568;DHT22;777;47.156;8.326;2023-09-30T10:56:13;25.00;99.90
1568;DHT22;777;47.156;8.326;2023-09-30T10:58:44;24.50;99.90
1568;DHT22;777;47.156;8.326;2023-09-30T11:01:12;25.60;99.90
1568;DHT22;777;47.156;8.326;2023-09-30T11:03:40;24.70;99.90
1568;DHT22;777;47.156;8.326;2023-09-30T11:06:11;24.80;99.90
1568;DHT22;777;47.156;8.326;2023-09-30T11:08:45;24.40;99.90
1568;DHT22;777;47.156;8.326;2023-09-30T11:11:12;23.50;99.90
1568;DHT22;777;47.156;8.326;2023-09-30T11:13:40;23.10;99.90
1568;DHT22;777;47.156;8.326;2023-09-30T11:16:07;23.60;99.90
1568;DHT22;777;47.156;8.326;2023-09-30T11:18:34;23.50;99.90
1568;DHT22;777;47.156;8.326;2023-09-30T11:21:09;24.80;99.90
1568;DHT22;777;47.156;8.326;2023-09-30T11:23:36;25.30;99.90
1568;DHT22;777;47.156;8.326;2023-09-30T11:26:04;25.80;99.90
1568;DHT22;777;47.156;8.326;2023-09-30T11:28:39;25.40;99.90
1568;DHT22;777;47.156;8.326;2023-09-30T11:31:11;26.80;99.90
1568;DHT22;777;47.156;8.326;2023-09-30T11:33:51;27.40;99.90
1568;DHT22;777;47.156;8.326;2023-09-30T11:36:20;28.30;99.90
1568;DHT22;777;47.156;8.326;2023-09-30T11:38:49;28.80;99.90
1568;DHT22;777;47.156;8.326;2023-09-30T11:41:17;29.70;99.90
1568;DHT22;777;47.156;8.326;2023-09-30T11:44:02;30.20;99.90
1568;DHT22;777;47.156;8.326;2023-09-30T11:46:30;29.60;99.90
1568;DHT22;777;47.156;8.326;2023-09-30T11:49:00;27.70;99.90
1568;DHT22;777;47.156;8.326;2023-09-30T11:51:29;25.00;99.90
1568;DHT22;777;47.156;8.326;2023-09-30T11:53:57;24.60;99.90
1568;DHT22;777;47.156;8.326;2023-09-30T11:56:24;23.90;99.90
1568;DHT22;777;47.156;8.326;2023-09-30T11:58:56;23.60;99.90
1568;DHT22;777;47.156;8.326;2023-09-30T12:01:24;25.10;99.90
1568;DHT22;777;47.156;8.326;2023-09-30T12:03:52;27.00;99.90
1568;DHT22;777;47.156;8.326;2023-09-30T12:06:22;28.50;99.90
1568;DHT22;777;47.156;8.326;2023-09-30T12:08:51;28.60;99.90
1568;DHT22;777;47.156;8.326;2023-09-30T12:11:18;26.20;99.90
1568;DHT22;777;47.156;8.326;2023-09-30T12:13:45;25.50;99.90
1568;DHT22;777;47.156;8.326;2023-09-30T12:16:14;27.60;99.90
1568;DHT22;777;47.156;8.326;2023-09-30T12:18:42;24.90;99.90
1568;DHT22;777;47.156;8.326;2023-09-30T12:21:10;25.90;99.90
1568;DHT22;777;47.156;8.326;2023-09-30T12:23:39;27.00;99.90
1568;DHT22;777;47.156;8.326;2023-09-30T12:26:08;29.00;99.90
1568;DHT22;777;47.156;8.326;2023-09-30T12:28:35;28.40;99.90
1568;DHT22;777;47.156;8.326;2023-09-30T12:31:01;27.20;99.90
1568;DHT22;777;47.156;8.326;2023-09-30T12:33:30;28.10;99.90
1568;DHT22;777;47.156;8.326;2023-09-30T12:35:58;27.50;99.90
1568;DHT22;777;47.156;8.326;2023-09-30T12:38:25;27.10;99.90
1568;DHT22;777;47.156;8.326;2023-09-30T12:40:54;27.50;99.90
1568;DHT22;777;47.156;8.326;2023-09-30T12:43:22;28.70;99.90
1568;DHT22;777;47.156;8.326;2023-09-30T12:45:49;27.00;99.90
1568;DHT22;777;47.156;8.326;2023-09-30T12:48:16;26.70;99.90
1568;DHT22;777;47.156;8.326;2023-09-30T12:50:43;26.50;99.90
1568;DHT22;777;47.156;8.326;2023-09-30T12:53:11;27.10;99.90
1568;DHT22;777;47.156;8.326;2023-09-30T12:55:37;28.00;99.90
1568;DHT22;777;47.156;8.326;2023-09-30T12:58:04;29.70;99.90
1568;DHT22;777;47.156;8.326;2023-09-30T13:00:33;30.90;99.90
1568;DHT22;777;47.156;8.326;2023-09-30T13:03:02;31.80;99.90
1568;DHT22;777;47.156;8.326;2023-09-30T13:05:29;32.60;99.90
1568;DHT22;777;47.156;8.326;2023-09-30T13:07:56;32.70;99.90
1568;DHT22;777;47.156;8.326;2023-09-30T13:10:24;32.90;99.90
1568;DHT22;777;47.156;8.326;2023-09-30T13:12:51;32.80;99.90
1568;DHT22;777;47.156;8.326;2023-09-30T13:15:19;32.80;99.90
1568;DHT22;777;47.156;8.326;2023-09-30T13:17:51;33.00;99.90
1568;DHT22;777;47.156;8.326;2023-09-30T13:20:18;33.00;99.90
1568;DHT22;777;47.156;8.326;2023-09-30T13:22:45;32.00;99.90
1568;DHT22;777;47.156;8.326;2023-09-30T13:25:13;31.80;99.90
1568;DHT22;777;47.156;8.326;2023-09-30T13:27:41;31.80;99.90
1568;DHT22;777;47.156;8.326;2023-09-30T13:30:09;32.20;99.90
1568;DHT22;777;47.156;8.326;2023-09-30T13:32:36;32.10;99.90
1568;DHT22;777;47.156;8.326;2023-09-30T13:35:05;31.50;99.90
1568;DHT22;777;47.156;8.326;2023-09-30T13:37:33;30.40;99.90
1568;DHT22;777;47.156;8.326;2023-09-30T13:40:00;29.80;99.90
1568;DHT22;777;47.156;8.326;2023-09-30T13:42:27;29.40;99.90
1568;DHT22;777;47.156;8.326;2023-09-30T13:44:55;28.60;99.90
1568;DHT22;777;47.156;8.326;2023-09-30T13:47:24;28.00;99.90
1568;DHT22;777;47.156;8.326;2023-09-30T13:50:09;27.50;99.90
1568;DHT22;777;47.156;8.326;2023-09-30T13:52:36;26.90;99.90
1568;DHT22;777;47.156;8.326;2023-09-30T13:55:04;26.60;99.90
1568;DHT22;777;47.156;8.326;2023-09-30T13:57:31;25.80;99.90
1568;DHT22;777;47.156;8.326;2023-09-30T13:59:58;25.00;99.90
1568;DHT22;777;47.156;8.326;2023-09-30T14:02:25;25.50;99.90
1568;DHT22;777;47.156;8.326;2023-09-30T14:04:52;25.30;99.90
1568;DHT22;777;47.156;8.326;2023-09-30T14:07:21;24.60;99.90
1568;DHT22;777;47.156;8.326;2023-09-30T14:09:49;23.80;99.90
1568;DHT22;777;47.156;8.326;2023-09-30T14:12:18;23.50;99.90
1568;DHT22;777;47.156;8.326;2023-09-30T14:14:45;23.10;99.90
1568;DHT22;777;47.156;8.326;2023-09-30T14:17:12;23.40;99.90
1568;DHT22;777;47.156;8.326;2023-09-30T14:19:40;23.50;99.90
1568;DHT22;777;47.156;8.326;2023-09-30T14:22:07;23.30;99.90
1568;DHT22;777;47.156;8.326;2023-09-30T14:24:36;23.50;99.90
1568;DHT22;777;47.156;8.326;2023-09-30T14:27:03;24.20;99.90
1568;DHT22;777;47.156;8.326;2023-09-30T14:29:31;24.50;99.90
1568;DHT22;777;47.156;8.326;2023-09-30T14:31:58;23.60;99.90
1568;DHT22;777;47.156;8.326;2023-09-30T14:34:25;24.10;99.90
1568;DHT22;777;47.156;8.326;2023-09-30T14:36:52;24.90;99.90
1568;DHT22;777;47.156;8.326;2023-09-30T14:39:19;24.90;99.90
1568;DHT22;777;47.156;8.326;2023-09-30T14:41:48;24.60;99.90
1568;DHT22;777;47.156;8.326;2023-09-30T14:44:15;24.60;99.90
1568;DHT22;777;47.156;8.326;2023-09-30T14:46:42;24.60;99.90
1568;DHT22;777;47.156;8.326;2023-09-30T14:49:10;24.50;99.90
1568;DHT22;777;47.156;8.326;2023-09-30T14:51:37;24.30;99.90
1568;DHT22;777;47.156;8.326;2023-09-30T14:54:05;24.30;99.90
1568;DHT22;777;47.156;8.326;2023-09-30T14:56:32;24.20;99.90
1568;DHT22;777;47.156;8.326;2023-09-30T14:59:00;24.10;99.90
1568;DHT22;777;47.156;8.326;2023-09-30T15:01:28;24.10;99.90
1568;DHT22;777;47.156;8.326;2023-09-30T15:03:55;24.10;99.90
1568;DHT22;777;47.156;8.326;2023-09-30T15:06:24;24.30;99.90
1568;DHT22;777;47.156;8.326;2023-09-30T15:08:51;24.80;99.90
1568;DHT22;777;47.156;8.326;2023-09-30T15:11:18;25.50;99.90
1568;DHT22;777;47.156;8.326;2023-09-30T15:13:45;25.60;99.90
1568;DHT22;777;47.156;8.326;2023-09-30T15:16:21;24.40;99.90
1568;DHT22;777;47.156;8.326;2023-09-30T15:18:48;22.90;99.90
1568;DHT22;777;47.156;8.326;2023-09-30T15:21:16;22.70;99.90
1568;DHT22;777;47.156;8.326;2023-09-30T15:23:43;22.80;99.90
1568;DHT22;777;47.156;8.326;2023-09-30T15:26:10;23.40;99.90
1568;DHT22;777;47.156;8.326;2023-09-30T15:28:37;23.50;99.90
1568;DHT22;777;47.156;8.326;2023-09-30T15:31:04;23.80;99.90
1568;DHT22;777;47.156;8.326;2023-09-30T15:33:34;22.60;99.90
1568;DHT22;777;47.156;8.326;2023-09-30T15:36:09;22.30;99.90
1568;DHT22;777;47.156;8.326;2023-09-30T15:38:36;22.60;99.90
1568;DHT22;777;47.156;8.326;2023-09-30T15:41:03;22.50;99.90
1568;DHT22;777;47.156;8.326;2023-09-30T15:43:30;22.30;99.90
1568;DHT22;777;47.156;8.326;2023-09-30T15:45:58;22.30;99.90
1568;DHT22;777;47.156;8.326;2023-09-30T15:48:25;22.20;99.90
1568;DHT22;777;47.156;8.326;2023-09-30T15:50:54;22.00;99.90
1568;DHT22;777;47.156;8.326;2023-09-30T15:53:20;22.00;99.90
1568;DHT22;777;47.156;8.326;2023-09-30T15:55:47;21.70;99.90
1568;DHT22;777;47.156;8.326;2023-09-30T15:58:15;21.50;99.90
1568;DHT22;777;47.156;8.326;2023-09-30T16:00:42;21.50;99.90
1568;DHT22;777;47.156;8.326;2023-09-30T16:03:10;21.50;99.90
1568;DHT22;777;47.156;8.326;2023-09-30T16:05:37;21.40;99.90
1568;DHT22;777;47.156;8.326;2023-09-30T16:08:07;21.40;99.90
1568;DHT22;777;47.156;8.326;2023-09-30T16:10:34;21.50;99.90
1568;DHT22;777;47.156;8.326;2023-09-30T16:13:02;21.60;99.90
1568;DHT22;777;47.156;8.326;2023-09-30T16:15:29;21.50;99.90
1568;DHT22;777;47.156;8.326;2023-09-30T16:17:56;21.70;99.90
1568;DHT22;777;47.156;8.326;2023-09-30T16:20:24;21.70;99.90
1568;DHT22;777;47.156;8.326;2023-09-30T16:22:52;21.80;99.90
1568;DHT22;777;47.156;8.326;2023-09-30T16:25:21;21.80;99.90
1568;DHT22;777;47.156;8.326;2023-09-30T16:27:48;21.70;99.90
1568;DHT22;777;47.156;8.326;2023-09-30T16:30:15;21.70;99.90